Time;durP1;ratioP1;P1;durP2;ratioP2;P2;SDS_P1;SDS_P2;PMS_P1;PMS_P2;Temp;Humidity;BMP_temperature;BMP_pressure;BME280_temperature;BME280_humidity;BME280_pressure;Samples;Min_cycle;Max_cycle;Signal;HPM_P1;HPM_P2
2023/05/20 00:00:42;;;;;;;14.75;7.45;;;;;;;16.38;64.25;99920.09;3132973;28;20075;-76
2023/05/20 00:02:13;;;;;;;11.32;5.95;;;;;;;16.37;64.27;99910.53;3132884;28;20114;-76
2023/05/20 00:03:45;;;;;;;13.48;6.90;;;;;;;16.38;64.36;99914.00;3132709;28;20049;-76
2023/05/20 00:05:17;;;;;;;11.63;6.78;;;;;;;16.35;64.38;99908.94;3132854;28;20121;-75
2023/05/20 00:06:48;;;;;;;13.18;6.78;;;;;;;16.36;64.51;99915.91;3132639;28;20052;-75
2023/05/20 00:08:20;;;;;;;12.60;6.03;;;;;;;16.34;64.52;99909.91;3134500;28;20525;-75
2023/05/20 00:09:53;;;;;;;9.80;6.38;;;;;;;16.33;64.62;99902.97;3133210;28;20053;-73
2023/05/20 00:11:25;;;;;;;;;;;;;;;16.26;64.36;99906.94;3133130;28;20053;-73
2023/05/20 00:12:56;;;;;;;16.52;6.22;;;;;;;16.24;64.68;99904.44;3132766;28;19921;-72
2023/05/20 00:14:29;;;;;;;10.90;6.43;;;;;;;16.25;64.57;99907.88;3130891;28;20538;-72
2023/05/20 00:16:00;;;;;;;11.07;6.63;;;;;;;16.25;64.68;99913.16;3132751;28;20056;-72
2023/05/20 00:17:32;;;;;;;14.23;6.65;;;;;;;16.18;64.76;99903.97;3132817;28;20052;-70
2023/05/20 00:19:04;;;;;;;12.82;5.30;;;;;;;16.24;64.79;99904.44;3131311;28;20061;-70
2023/05/20 00:20:36;;;;;;;11.32;6.07;;;;;;;16.21;64.86;99904.63;3132349;28;20139;-71
2023/05/20 00:22:08;;;;;;;11.23;6.05;;;;;;;16.25;64.71;99905.25;3133570;28;20045;-73
2023/05/20 00:23:39;;;;;;;12.55;6.28;;;;;;;16.21;64.93;99904.63;3137686;28;20718;-72
2023/05/20 00:25:13;;;;;;;11.95;6.05;;;;;;;16.23;64.88;99902.72;3129850;28;20047;-72
2023/05/20 00:26:45;;;;;;;10.45;5.95;;;;;;;16.22;65.08;99905.47;3132623;28;20055;-71
2023/05/20 00:28:18;;;;;;;10.68;5.93;;;;;;;16.19;64.92;99901.25;3132670;28;20075;-72
2023/05/20 00:29:50;;;;;;;11.77;6.28;;;;;;;16.21;64.92;99907.25;3132837;28;20441;-73
2023/05/20 00:31:21;;;;;;;12.00;6.38;;;;;;;16.20;65.03;99902.09;3132926;28;20162;-71
2023/05/20 00:32:53;;;;;;;12.38;5.05;;;;;;;16.16;64.91;99898.84;3132793;28;20061;-72
2023/05/20 00:34:24;;;;;;;11.82;6.93;;;;;;;16.15;64.86;99897.16;3132482;28;20485;-71
2023/05/20 00:35:55;;;;;;;12.82;6.40;;;;;;;16.16;65.12;99901.47;3132374;28;20052;-72
2023/05/20 00:37:28;;;;;;;11.07;6.32;;;;;;;16.14;65.23;99900.72;3143135;28;20056;-73
2023/05/20 00:38:59;;;;;;;9.45;5.50;;;;;;;16.11;65.32;99899.13;3132554;28;20114;-74
2023/05/20 00:40:33;;;;;;;15.10;5.65;;;;;;;16.12;65.08;99902.63;3132184;28;20140;-74
2023/05/20 00:42:05;;;;;;;11.65;5.20;;;;;;;16.08;65.17;99901.97;3132441;28;20443;-74
2023/05/20 00:43:37;;;;;;;11.00;6.00;;;;;;;16.08;65.26;99901.97;3132644;28;20763;-73
2023/05/20 00:45:08;;;;;;;11.80;6.15;;;;;;;16.09;65.30;99894.91;3132339;28;20060;-73
2023/05/20 00:46:40;;;;;;;11.63;5.90;;;;;;;16.06;65.24;99890.72;3132607;28;20056;-76
2023/05/20 00:48:13;;;;;;;12.45;6.22;;;;;;;16.04;65.29;99892.59;3132531;28;20049;-74
2023/05/20 00:49:44;;;;;;;10.90;5.90;;;;;;;16.02;65.24;99891.03;3132644;28;20057;-74
2023/05/20 00:51:16;;;;;;;13.35;5.93;;;;;;;16.01;65.41;99894.59;3132498;28;20198;-74
2023/05/20 00:52:50;;;;;;;9.07;6.05;;;;;;;16.00;65.75;99898.16;3132261;28;20052;-73
2023/05/20 00:54:22;;;;;;;11.82;6.93;;;;;;;15.97;65.66;99895.72;3132558;28;20554;-73
2023/05/20 00:55:54;;;;;;;10.10;6.40;;;;;;;15.96;65.72;99894.91;3132394;28;20049;-73
2023/05/20 00:57:26;;;;;;;9.63;6.45;;;;;;;15.94;65.74;99894.16;3132483;28;20526;-73
2023/05/20 00:58:58;;;;;;;15.15;7.43;;;;;;;15.92;65.81;99894.25;3132200;28;20045;-73
2023/05/20 01:00:29;;;;;;;18.08;7.47;;;;;;;15.91;66.02;99894.34;3131889;28;20111;-73
2023/05/20 01:02:01;;;;;;;12.80;6.57;;;;;;;15.91;65.93;99896.97;3132240;28;20532;-73
2023/05/20 01:03:33;;;;;;;12.10;7.05;;;;;;;15.87;66.09;99887.63;3132224;28;20053;-75
2023/05/20 01:05:05;;;;;;;16.50;7.68;;;;;;;15.88;66.07;99884.03;3137968;28;20286;-75
2023/05/20 01:06:37;;;;;;;13.93;6.95;;;;;;;15.86;66.26;99883.31;3132261;28;20098;-75
2023/05/20 01:08:09;;;;;;;14.95;7.85;;;;;;;15.77;66.26;99870.81;3132704;28;20148;-76
2023/05/20 01:09:40;;;;;;;15.27;7.07;;;;;;;15.83;66.28;99887.00;3126316;28;20505;-76
2023/05/20 01:11:20;;;;;;;12.70;6.90;;;;;;;15.79;66.39;99869.72;3132353;28;20136;-76
2023/05/20 01:12:55;;;;;;;11.75;6.90;;;;;;;15.79;66.51;99876.78;3132222;28;20503;-75
2023/05/20 01:14:32;;;;;;;11.05;7.00;;;;;;;15.80;66.51;99887.19;3129286;28;20062;-73
2023/05/20 01:16:05;;;;;;;14.93;7.72;;;;;;;15.78;66.68;99878.56;3131500;28;20057;-74
2023/05/20 01:17:40;;;;;;;16.20;8.30;;;;;;;15.76;66.74;99876.97;3132133;28;20053;-72
2023/05/20 01:19:32;;;;;;;15.18;7.20;;;;;;;15.78;66.68;99885.59;3139953;28;20577;-72
2023/05/20 01:21:07;;;;;;;13.45;7.95;;;;;;;15.76;66.70;99879.59;3127643;28;20053;-73
2023/05/20 01:22:47;;;;;;;14.93;7.65;;;;;;;15.75;66.96;99873.50;3132086;28;20081;-72
2023/05/20 01:24:19;;;;;;;14.52;7.72;;;;;;;15.73;66.92;99875.38;3130123;28;20136;-72
2023/05/20 01:25:51;;;;;;;16.48;7.60;;;;;;;15.73;67.16;99871.94;3131997;28;20040;-72
2023/05/20 01:27:23;;;;;;;14.52;8.40;;;;;;;15.72;67.32;99871.09;3134387;28;20053;-74
2023/05/20 01:28:56;;;;;;;16.63;8.00;;;;;;;15.71;67.45;99876.47;3134584;28;20057;-73
2023/05/20 01:30:38;;;;;;;18.33;7.50;;;;;;;15.67;67.38;99875.75;3133515;28;20589;-73
2023/05/20 01:32:12;;;;;;;12.35;7.07;;;;;;;15.68;67.68;99873.09;3132965;28;20064;-72
2023/05/20 01:33:46;;;;;;;14.45;8.15;;;;;;;15.65;67.88;99875.88;3133669;28;20053;-72
2023/05/20 01:35:18;;;;;;;;;;;;;;;15.62;67.58;99877.88;3132498;28;20103;-73
2023/05/20 01:36:50;;;;;;;13.95;7.57;;;;;;;15.61;68.07;99884.03;3131700;28;19942;-73
2023/05/20 01:38:24;;;;;;;15.05;7.95;;;;;;;15.37;68.09;99841.84;3134003;28;20190;-75
2023/05/20 01:39:57;;;;;;;13.60;7.88;;;;;;;15.60;68.24;99883.19;3132737;28;20045;-75
2023/05/20 01:41:30;;;;;;;13.93;7.50;;;;;;;15.58;68.37;99868.47;3132668;28;20057;-76
2023/05/20 01:43:03;;;;;;;13.70;7.55;;;;;;;15.57;68.50;99877.31;3132082;28;20045;-73
2023/05/20 01:44:35;;;;;;;12.45;7.15;;;;;;;15.56;68.70;99878.22;3132281;28;20048;-75
2023/05/20 01:46:07;;;;;;;15.77;7.43;;;;;;;15.54;68.69;99875.72;3131837;28;20060;-74
2023/05/20 01:47:38;;;;;;;12.50;7.28;;;;;;;15.53;68.85;99875.81;3140500;28;20052;-72
2023/05/20 01:49:10;;;;;;;17.55;7.65;;;;;;;15.52;68.85;99872.34;3131898;28;20556;-75
2023/05/20 01:50:41;;;;;;;13.65;7.80;;;;;;;15.52;68.98;99872.34;3127756;28;20078;-74
2023/05/20 01:52:13;;;;;;;13.88;7.10;;;;;;;15.51;68.96;99868.03;3131897;28;20045;-75
2023/05/20 01:53:47;;;;;;;11.30;6.88;;;;;;;15.45;69.03;99860.56;3131879;28;20053;-75
2023/05/20 01:55:18;;;;;;;16.20;8.00;;;;;;;15.46;69.23;99868.31;3131977;28;20041;-72
2023/05/20 01:56:49;;;;;;;12.48;6.90;;;;;;;15.44;69.18;99864.16;3130951;28;20045;-74
2023/05/20 01:58:21;;;;;;;14.70;7.20;;;;;;;15.45;69.17;99863.19;3131959;28;20466;-76
2023/05/20 01:59:52;;;;;;;15.43;6.97;;;;;;;15.44;69.38;99864.16;3131702;28;20045;-75
2023/05/20 02:01:24;;;;;;;17.55;6.68;;;;;;;15.42;69.30;99872.09;3140118;28;20106;-72
2023/05/20 02:02:55;;;;;;;13.32;6.68;;;;;;;15.40;69.41;99863.47;3134128;28;20063;-74
2023/05/20 02:04:27;;;;;;;13.38;7.18;;;;;;;15.41;69.58;99862.56;3131832;28;20108;-67
2023/05/20 02:05:57;;;;;;;13.93;7.50;;;;;;;15.38;69.62;99864.50;3131863;28;20051;-75
2023/05/20 02:07:29;;;;;;;12.98;7.22;;;;;;;15.39;69.63;99858.34;3131981;28;20049;-74
2023/05/20 02:09:03;;;;;;;13.35;7.50;;;;;;;15.37;69.51;99868.94;3131513;28;20053;-75
2023/05/20 02:10:34;;;;;;;;;;;;;;;15.32;69.37;99859.66;3132265;28;20387;-75
2023/05/20 02:12:06;;;;;;;11.40;6.88;;;;;;;15.30;69.81;99851.91;3131514;28;20429;-74
2023/05/20 02:13:39;;;;;;;11.90;7.30;;;;;;;15.30;69.70;99851.06;3124581;28;20052;-74
2023/05/20 02:15:11;;;;;;;14.00;7.68;;;;;;;15.28;69.72;99848.53;3132148;28;20037;-74
2023/05/20 02:16:43;;;;;;;12.38;7.50;;;;;;;15.25;69.99;99843.47;3132130;28;20411;-74
2023/05/20 02:18:17;;;;;;;19.02;7.10;;;;;;;15.24;70.15;99847.03;3131522;28;20057;-74
2023/05/20 02:19:49;;;;;;;14.60;7.10;;;;;;;15.19;70.33;99833.38;3131992;28;20049;-73
2023/05/20 02:21:20;;;;;;;12.38;7.63;;;;;;;15.15;70.09;99837.16;3131521;28;20582;-73
2023/05/20 02:22:52;;;;;;;15.15;8.27;;;;;;;15.12;70.10;99830.31;3131924;28;20055;-73
2023/05/20 02:24:25;;;;;;;14.32;8.40;;;;;;;15.09;70.39;99827.88;3129318;28;20049;-73
2023/05/20 02:25:57;;;;;;;14.15;7.80;;;;;;;15.10;70.47;99834.78;3126222;28;20506;-70
2023/05/20 02:27:28;;;;;;;13.65;7.20;;;;;;;15.08;70.39;99841.06;3131967;28;20115;-73
2023/05/20 02:29:00;;;;;;;13.07;7.78;;;;;;;15.07;70.48;99844.66;3133947;28;20509;-73
2023/05/20 02:30:30;;;;;;;13.27;7.82;;;;;;;15.04;70.43;99844.84;3131890;28;20083;-73
2023/05/20 02:32:03;;;;;;;21.38;7.90;;;;;;;14.97;70.62;99839.97;3132012;28;20510;-73
2023/05/20 02:33:34;;;;;;;13.40;7.93;;;;;;;14.96;70.52;99845.31;3132177;28;20045;-74
2023/05/20 02:35:07;;;;;;;15.32;7.70;;;;;;;14.93;70.72;99845.50;3131452;28;20041;-71
2023/05/20 02:36:39;;;;;;;13.88;7.43;;;;;;;14.90;70.91;99843.91;3131457;28;20064;-73
2023/05/20 02:38:09;;;;;;;16.38;8.00;;;;;;;14.91;70.69;99848.22;3119519;28;20057;-74
2023/05/20 02:39:43;;;;;;;16.80;7.70;;;;;;;14.91;70.51;99843.00;3131187;28;20049;-74
2023/05/20 02:41:15;;;;;;;13.55;7.85;;;;;;;14.66;70.62;99801.72;3131623;28;20045;-74
2023/05/20 02:42:46;;;;;;;13.43;7.95;;;;;;;14.85;70.63;99838.13;3133793;28;20144;-74
2023/05/20 02:44:17;;;;;;;15.77;7.70;;;;;;;14.87;71.12;99848.50;3136284;28;20048;-74
2023/05/20 02:45:49;;;;;;;16.27;8.75;;;;;;;14.79;70.92;99831.50;3134238;28;20041;-73
2023/05/20 02:47:21;;;;;;;13.32;7.50;;;;;;;14.82;70.77;99840.94;3134210;28;20052;-73
2023/05/20 02:48:53;;;;;;;15.68;7.45;;;;;;;14.79;71.08;99839.34;3133890;28;20053;-73
2023/05/20 02:50:25;;;;;;;14.38;7.75;;;;;;;14.78;71.00;99842.88;3133862;28;20052;-72
2023/05/20 02:51:56;;;;;;;13.30;7.47;;;;;;;14.74;71.11;99838.78;3133386;28;20778;-72
2023/05/20 02:53:27;;;;;;;14.57;8.35;;;;;;;14.74;70.99;99843.19;3134137;28;20061;-72
2023/05/20 02:55:01;;;;;;;16.52;7.90;;;;;;;14.72;71.25;99848.50;3134043;28;20041;-73
2023/05/20 02:56:33;;;;;;;13.20;7.45;;;;;;;14.69;70.95;99853.09;3133522;28;20049;-72
2023/05/20 02:58:04;;;;;;;13.98;7.63;;;;;;;14.67;71.32;99841.88;3141665;28;20040;-72
2023/05/20 02:59:36;;;;;;;14.57;8.65;;;;;;;14.69;71.06;99850.50;3133873;28;20057;-73
2023/05/20 03:01:08;;;;;;;15.88;7.43;;;;;;;14.68;71.15;99849.66;3133944;28;20052;-72
2023/05/20 03:02:40;;;;;;;13.23;7.10;;;;;;;14.68;71.22;99854.06;3134065;28;20060;-72
2023/05/20 03:04:12;;;;;;;13.75;7.60;;;;;;;14.67;71.19;99847.97;3133728;28;20775;-73
2023/05/20 03:05:44;;;;;;;14.20;7.57;;;;;;;14.69;70.99;99850.50;3133685;28;20087;-73
2023/05/20 03:07:18;;;;;;;16.00;7.13;;;;;;;14.67;70.89;99857.59;3129991;28;20429;-73
2023/05/20 03:08:49;;;;;;;;;;;;;;;14.63;70.59;99853.50;3134243;28;20044;-74
2023/05/20 03:10:22;;;;;;;13.48;7.60;;;;;;;14.61;70.91;99860.59;3134220;28;19932;-75
2023/05/20 03:11:54;;;;;;;14.43;7.72;;;;;;;14.60;71.04;99851.06;3143059;28;20049;-76
2023/05/20 03:13:24;;;;;;;11.32;7.30;;;;;;;14.60;70.73;99851.88;3135975;28;20151;-76
2023/05/20 03:14:57;;;;;;;11.48;7.18;;;;;;;14.59;70.87;99849.38;3126752;28;20060;-76
2023/05/20 03:16:29;;;;;;;20.80;8.05;;;;;;;14.51;70.81;99847.19;3129828;28;20132;-77
2023/05/20 03:18:00;;;;;;;16.02;6.72;;;;;;;14.55;70.75;99848.69;3133639;28;20057;-76
2023/05/20 03:19:32;;;;;;;14.50;7.10;;;;;;;14.55;70.71;99852.19;3133995;28;20110;-76
2023/05/20 03:21:04;;;;;;;13.73;7.60;;;;;;;14.51;70.70;99850.66;3133443;28;20056;-76
2023/05/20 03:22:35;;;;;;;9.52;6.57;;;;;;;14.53;70.79;99861.06;3136040;28;20098;-76
2023/05/20 03:24:07;;;;;;;12.13;6.93;;;;;;;14.49;70.94;99864.75;3133343;28;20143;-75
2023/05/20 03:25:40;;;;;;;16.10;7.80;;;;;;;14.50;70.96;99869.09;3136233;28;20520;-76
2023/05/20 03:27:12;;;;;;;17.42;7.32;;;;;;;14.49;70.77;99875.25;3133557;28;20111;-76
2023/05/20 03:28:44;;;;;;;11.40;7.10;;;;;;;14.49;70.62;99872.63;3133154;28;20071;-76
2023/05/20 03:30:15;;;;;;;13.43;7.63;;;;;;;14.49;70.74;99885.72;3133552;28;20489;-77
2023/05/20 03:31:47;;;;;;;14.10;6.97;;;;;;;14.49;70.77;99885.72;3133784;28;20134;-76
2023/05/20 03:33:19;;;;;;;12.05;7.38;;;;;;;14.51;70.59;99896.97;3133806;28;20107;-76
2023/05/20 03:34:51;;;;;;;12.23;7.50;;;;;;;14.50;71.02;99905.78;3133213;28;20071;-78
2023/05/20 03:36:23;;;;;;;13.40;7.95;;;;;;;14.43;70.90;99904.44;3132933;28;20107;-78
2023/05/20 03:37:55;;;;;;;16.98;7.70;;;;;;;14.45;70.99;99921.75;3133397;28;20056;-78
2023/05/20 03:39:25;;;;;;;13.95;8.13;;;;;;;14.20;71.26;99890.94;3133986;28;20049;-78
2023/05/20 03:40:59;;;;;;;17.05;7.93;;;;;;;14.40;71.70;99923.78;3133175;28;20080;-77
2023/05/20 03:42:30;;;;;;;13.30;7.57;;;;;;;14.39;71.55;99919.50;3133107;28;20078;-78
2023/05/20 03:44:02;;;;;;;16.80;8.50;;;;;;;14.40;71.59;99920.34;3133283;28;20056;-77
2023/05/20 03:45:34;;;;;;;12.00;7.28;;;;;;;14.42;71.53;99921.09;3133536;28;20045;-77
2023/05/20 03:47:05;;;;;;;12.45;7.05;;;;;;;14.44;71.85;99920.09;3133218;28;20053;-76
2023/05/20 03:48:37;;;;;;;12.65;7.15;;;;;;;14.46;72.00;99927.84;3133671;28;20179;-76
2023/05/20 03:50:10;;;;;;;18.25;7.70;;;;;;;14.35;71.85;99902.28;3133164;28;20099;-76
2023/05/20 03:51:42;;;;;;;11.65;7.30;;;;;;;14.37;71.94;99900.41;3132976;28;20163;-77
2023/05/20 03:53:14;;;;;;;13.73;7.40;;;;;;;14.51;71.88;99913.56;3133906;28;20438;-77
2023/05/20 03:54:45;;;;;;;11.80;7.28;;;;;;;14.46;72.01;99897.22;3129172;28;20052;-80
2023/05/20 03:56:18;;;;;;;13.23;7.20;;;;;;;14.46;71.75;99888.53;3133240;28;20094;-79
2023/05/20 03:57:50;;;;;;;15.77;7.28;;;;;;;14.66;71.79;99910.97;3133076;28;20053;-79
2023/05/20 03:59:21;;;;;;;11.77;7.22;;;;;;;14.70;71.65;99915.94;3133072;28;20098;-79
2023/05/20 04:00:53;;;;;;;15.32;6.97;;;;;;;14.75;71.75;99913.84;3132963;28;20056;-82
2023/05/20 04:02:24;;;;;;;14.93;7.38;;;;;;;14.60;71.54;99878.09;3133510;28;20044;-82
2023/05/20 04:03:56;;;;;;;13.57;7.03;;;;;;;14.81;71.60;99907.41;3133049;28;20174;-82
2023/05/20 04:05:28;;;;;;;9.77;6.88;;;;;;;14.63;71.55;99870.06;3133381;28;20060;-79
2023/05/20 04:07:00;;;;;;;11.23;7.53;;;;;;;14.74;71.44;99887.75;3132794;28;20048;-78
2023/05/20 04:08:32;;;;;;;10.35;6.85;;;;;;;14.92;71.41;99922.50;3128288;28;20095;-78
2023/05/20 04:10:05;;;;;;;15.00;7.30;;;;;;;14.55;71.23;99862.66;3133029;28;20084;-78
2023/05/20 04:11:39;;;;;;;17.23;7.85;;;;;;;14.93;71.44;99916.31;3133806;28;20092;-76
2023/05/20 04:13:11;;;;;;;16.85;7.38;;;;;;;14.96;71.46;99916.09;3132835;28;20060;-76
2023/05/20 04:14:43;;;;;;;18.48;6.90;;;;;;;14.97;71.33;99923.91;3131677;28;20052;-77
2023/05/20 04:16:14;;;;;;;15.25;7.20;;;;;;;14.98;71.15;99909.84;3132235;28;20608;-73
2023/05/20 04:17:47;;;;;;;16.42;7.90;;;;;;;15.00;71.29;99915.00;3133019;28;20045;-73
2023/05/20 04:19:19;;;;;;;17.60;7.88;;;;;;;15.00;71.04;99910.59;3132547;28;20489;-73
2023/05/20 04:20:54;;;;;;;15.93;6.85;;;;;;;15.02;71.20;99913.09;3132661;28;20123;-72
2023/05/20 04:22:26;;;;;;;12.70;7.32;;;;;;;15.01;70.96;99909.66;3132698;28;20135;-73
2023/05/20 04:23:59;;;;;;;14.57;6.97;;;;;;;15.05;70.86;99914.69;3124636;28;20054;-73
2023/05/20 04:25:30;;;;;;;12.95;7.10;;;;;;;15.06;70.89;99911.16;3130263;28;20106;-72
2023/05/20 04:27:04;;;;;;;14.77;7.30;;;;;;;15.09;70.68;99918.84;3132337;28;20445;-72
2023/05/20 04:28:36;;;;;;;12.57;6.88;;;;;;;15.11;70.74;99909.06;3132517;28;20064;-76
2023/05/20 04:30:08;;;;;;;13.70;7.10;;;;;;;15.14;70.53;99914.97;3132797;28;20053;-76
2023/05/20 04:31:40;;;;;;;13.43;7.43;;;;;;;15.16;70.66;99910.47;3133003;28;20049;-73
2023/05/20 04:33:13;;;;;;;16.00;7.30;;;;;;;15.16;70.61;99910.47;3132380;28;20049;-73
2023/05/20 04:34:45;;;;;;;13.23;7.25;;;;;;;15.16;70.57;99910.47;3132837;28;20053;-71
2023/05/20 04:36:17;;;;;;;15.35;7.53;;;;;;;15.14;70.64;99896.59;3136275;28;20056;-69
2023/05/20 04:37:51;;;;;;;15.43;7.47;;;;;;;15.22;70.32;99910.09;3132648;28;20041;-70
2023/05/20 04:39:23;;;;;;;16.92;8.02;;;;;;;15.21;70.33;99900.56;3132072;28;20109;-71
2023/05/20 04:40:56;;;;;;;14.50;7.40;;;;;;;15.22;70.25;99904.84;3132638;28;20135;-69
2023/05/20 04:42:30;;;;;;;15.63;7.05;;;;;;;15.25;70.40;99906.44;3132336;28;20152;-72
2023/05/20 04:44:00;;;;;;;10.73;6.70;;;;;;;15.24;70.52;99905.59;3132488;28;20045;-69
2023/05/20 04:45:34;;;;;;;16.35;8.38;;;;;;;15.28;70.31;99914.13;3132149;28;20057;-68
2023/05/20 04:47:07;;;;;;;15.02;7.13;;;;;;;15.33;70.44;99913.84;3132924;28;21021;-68
2023/05/20 04:48:38;;;;;;;16.20;7.85;;;;;;;15.37;70.40;99918.78;3132489;28;20106;-69
2023/05/20 04:50:12;;;;;;;12.75;7.95;;;;;;;15.40;70.37;99921.22;3138421;28;20501;-70
2023/05/20 04:51:42;;;;;;;;;;;;;;;15.39;70.22;99919.53;3133093;28;20506;-69
2023/05/20 04:53:15;;;;;;;15.43;7.00;;;;;;;15.41;70.24;99925.53;3132193;28;19928;-70
2023/05/20 04:54:47;;;;;;;14.67;8.00;;;;;;;15.46;70.14;99920.81;3132098;28;20064;-68
2023/05/20 04:56:19;;;;;;;13.80;7.20;;;;;;;15.52;69.84;99918.75;3132284;28;20648;-69
2023/05/20 04:57:52;;;;;;;15.97;6.70;;;;;;;15.57;69.79;99922.78;3132657;28;20812;-76
2023/05/20 04:59:24;;;;;;;19.73;6.82;;;;;;;15.62;69.65;99923.31;3132425;28;20307;-68
2023/05/20 05:00:56;;;;;;;17.65;6.88;;;;;;;15.67;69.72;99921.25;3120085;28;20053;-67
2023/05/20 05:02:28;;;;;;;11.88;7.18;;;;;;;15.73;69.21;99927.91;3132271;28;20056;-67
2023/05/20 05:04:00;;;;;;;16.33;7.45;;;;;;;15.78;69.38;99928.47;3138324;28;20048;-71
2023/05/20 05:05:32;;;;;;;12.10;6.97;;;;;;;15.82;68.99;99918.59;3134382;28;20056;-70
2023/05/20 05:07:04;;;;;;;17.25;7.13;;;;;;;15.91;68.97;99926.72;3132217;28;20583;-69
2023/05/20 05:08:36;;;;;;;10.97;6.80;;;;;;;15.90;68.75;99914.53;3132141;28;20049;-71
2023/05/20 05:10:09;;;;;;;18.17;6.70;;;;;;;16.03;68.45;99924.22;3132137;28;20057;-67
2023/05/20 05:11:41;;;;;;;12.55;6.90;;;;;;;16.09;68.37;99929.06;3132312;28;20049;-67
2023/05/20 05:13:14;;;;;;;13.45;7.13;;;;;;;16.15;68.08;99920.81;3132317;28;20055;-66
2023/05/20 05:14:46;;;;;;;15.07;6.38;;;;;;;16.21;67.72;99923.03;3126350;28;20061;-64
2023/05/20 05:16:18;;;;;;;10.25;6.40;;;;;;;16.29;67.64;99920.72;3131772;28;20057;-68
2023/05/20 05:17:50;;;;;;;16.90;7.07;;;;;;;16.36;67.63;99924.63;3136676;28;20082;-69
2023/05/20 05:19:22;;;;;;;15.90;6.85;;;;;;;16.45;67.17;99919.69;3133482;28;20203;-70
2023/05/20 05:20:59;;;;;;;13.23;6.68;;;;;;;16.36;67.07;99893.09;3131878;28;20049;-82
2023/05/20 05:22:31;;;;;;;12.88;6.40;;;;;;;16.60;66.69;99921.28;3132470;28;20465;-77
2023/05/20 05:24:03;;;;;;;14.18;6.18;;;;;;;16.68;66.63;99921.59;3123205;28;20115;-75
2023/05/20 05:25:35;;;;;;;10.80;6.40;;;;;;;16.73;66.29;99914.22;3132144;28;20433;-76
2023/05/20 05:27:07;;;;;;;12.65;7.03;;;;;;;16.84;65.85;99921.41;3135526;28;20164;-74
2023/05/20 05:28:42;;;;;;;15.90;7.50;;;;;;;16.86;65.63;99906.38;3132372;28;20502;-72
2023/05/20 05:30:14;;;;;;;15.60;6.18;;;;;;;16.97;65.44;99911.69;3132392;28;20080;-74
2023/05/20 05:31:46;;;;;;;10.07;5.55;;;;;;;17.06;65.09;99926.84;3134995;28;20052;-74
2023/05/20 05:33:18;;;;;;;13.55;6.68;;;;;;;17.14;64.72;99925.47;3138132;28;20049;-72
2023/05/20 05:34:50;;;;;;;12.35;6.57;;;;;;;17.20;64.46;99925.03;3132160;28;20360;-77
2023/05/20 05:36:24;;;;;;;14.60;6.88;;;;;;;17.27;64.22;99928.91;3132199;28;20503;-75
2023/05/20 05:37:54;;;;;;;12.20;6.63;;;;;;;17.35;63.85;99926.59;3131837;28;20052;-76
2023/05/20 05:39:26;;;;;;;14.60;6.30;;;;;;;17.40;63.90;99924.47;3132135;28;20041;-72
2023/05/20 05:40:58;;;;;;;12.38;6.07;;;;;;;17.51;63.73;99921.91;3126845;28;20064;-75
2023/05/20 05:42:30;;;;;;;15.95;6.93;;;;;;;17.60;63.46;99935.34;3132265;28;20060;-77
2023/05/20 05:44:05;;;;;;;9.70;6.63;;;;;;;17.64;62.96;99928.94;3131584;28;20817;-74
2023/05/20 05:45:37;;;;;;;17.38;6.88;;;;;;;17.72;62.72;99930.06;3133608;28;20084;-76
2023/05/20 05:47:09;;;;;;;13.93;6.95;;;;;;;17.59;62.49;99896.81;3133379;28;20080;-72
2023/05/20 05:48:41;;;;;;;27.05;7.85;;;;;;;17.86;62.25;99929.06;3132240;28;20045;-71
2023/05/20 05:50:13;;;;;;;13.00;6.93;;;;;;;17.91;61.97;99921.66;3132031;28;20045;-73
2023/05/20 05:51:45;;;;;;;12.27;6.72;;;;;;;18.01;61.64;99918.34;3132460;28;20045;-69
2023/05/20 05:53:17;;;;;;;15.82;6.80;;;;;;;18.08;61.49;99922.22;3131495;28;20052;-69
2023/05/20 05:54:48;;;;;;;13.45;7.07;;;;;;;18.15;61.12;99916.34;3132189;28;20115;-68
2023/05/20 05:56:21;;;;;;;13.27;6.78;;;;;;;18.22;60.98;99919.41;3129631;28;20041;-68
2023/05/20 05:57:53;;;;;;;16.20;6.57;;;;;;;18.31;60.89;99917.84;3132268;28;20060;-69
2023/05/20 05:59:25;;;;;;;14.32;7.25;;;;;;;18.39;60.51;99905.75;3132476;28;20078;-68
2023/05/20 06:00:57;;;;;;;13.70;6.68;;;;;;;18.45;60.26;99904.47;3135347;28;20476;-71
2023/05/20 06:02:29;;;;;;;15.07;6.68;;;;;;;18.51;59.91;99906.63;3132170;28;20048;-76
2023/05/20 06:04:01;;;;;;;15.73;6.60;;;;;;;18.60;59.78;99915.63;3125511;28;20055;-76
2023/05/20 06:05:33;;;;;;;12.13;6.47;;;;;;;18.67;59.36;99910.75;3131822;28;20445;-71
2023/05/20 06:07:05;;;;;;;16.02;6.45;;;;;;;18.73;59.38;99916.41;3131407;28;20041;-75
2023/05/20 06:08:37;;;;;;;10.80;6.65;;;;;;;18.79;59.12;99908.03;3131589;28;20063;-70
2023/05/20 06:10:10;;;;;;;13.57;7.00;;;;;;;18.86;59.09;99903.09;3132028;28;20053;-69
2023/05/20 06:11:43;;;;;;;12.57;6.15;;;;;;;18.98;58.70;99902.13;3131792;28;20064;-66
2023/05/20 06:13:15;;;;;;;13.60;6.40;;;;;;;19.06;58.59;99906.81;3131682;28;20596;-69
2023/05/20 06:14:48;;;;;;;17.60;7.03;;;;;;;19.16;58.35;99906.91;3131147;28;20041;-75
2023/05/20 06:16:20;;;;;;;15.38;7.00;;;;;;;19.23;58.19;99908.97;3131098;28;20122;-72
2023/05/20 06:17:52;;;;;;;16.35;6.82;;;;;;;19.30;57.97;99907.50;3132827;28;20082;-77
2023/05/20 06:19:23;;;;;;;14.30;6.75;;;;;;;19.35;57.50;99907.16;3134173;28;20053;-73
2023/05/20 06:20:56;;;;;;;8.73;5.93;;;;;;;19.42;57.42;99910.13;3133139;28;20106;-75
2023/05/20 06:22:28;;;;;;;16.45;6.60;;;;;;;19.46;57.33;99904.50;3126140;28;20123;-73
2023/05/20 06:24:00;;;;;;;11.43;6.72;;;;;;;19.47;57.23;99890.31;3132085;28;20055;-76
2023/05/20 06:25:32;;;;;;;10.68;6.28;;;;;;;19.59;57.39;99901.69;3133088;28;20933;-69
2023/05/20 06:27:04;;;;;;;12.60;6.15;;;;;;;19.64;57.22;99896.88;3129062;28;20282;-73
2023/05/20 06:28:36;;;;;;;14.85;6.75;;;;;;;19.72;57.24;99905.03;3129128;28;20549;-72
2023/05/20 06:30:10;;;;;;;18.60;6.70;;;;;;;19.82;57.11;99906.91;3128562;28;20053;-72
2023/05/20 06:31:42;;;;;;;18.75;6.95;;;;;;;19.87;57.00;99902.94;3129214;28;20106;-74
2023/05/20 06:33:13;;;;;;;13.30;6.47;;;;;;;19.96;57.11;99907.47;3129422;28;20110;-74
2023/05/20 06:34:45;;;;;;;14.30;6.60;;;;;;;20.03;56.91;99899.06;3128723;28;20140;-73
2023/05/20 06:36:17;;;;;;;18.23;6.35;;;;;;;20.15;56.50;99904.16;3128941;28;20057;-73
2023/05/20 06:37:49;;;;;;;16.67;6.05;;;;;;;20.22;55.91;99905.28;3128776;28;20056;-71
2023/05/20 06:39:21;;;;;;;10.90;5.75;;;;;;;20.17;55.66;99886.34;3128814;28;20557;-75
2023/05/20 06:40:53;;;;;;;11.20;5.72;;;;;;;20.31;54.93;99900.22;3128623;28;20061;-74
2023/05/20 06:42:25;;;;;;;13.02;5.50;;;;;;;20.40;54.07;99888.84;3133483;28;20052;-71
2023/05/20 06:43:57;;;;;;;14.85;4.97;;;;;;;20.50;53.82;99900.34;3129299;28;20140;-72
2023/05/20 06:45:30;;;;;;;8.77;5.30;;;;;;;20.58;53.14;99900.53;3128969;28;20048;-71
2023/05/20 06:47:02;;;;;;;;;;;;;;;20.63;53.75;99890.41;3129349;28;20511;-68
2023/05/20 06:48:34;;;;;;;13.43;5.88;;;;;;;20.66;52.97;99892.78;3128668;28;20462;-74
2023/05/20 06:50:07;;;;;;;9.75;4.95;;;;;;;20.79;52.90;99889.06;3127753;28;20142;-69
2023/05/20 06:51:37;;;;;;;9.50;4.97;;;;;;;20.86;52.23;99900.84;3128933;28;20095;-66
2023/05/20 06:53:09;;;;;;;9.93;5.40;;;;;;;20.94;51.91;99887.78;3128880;28;20053;-66
2023/05/20 06:54:41;;;;;;;10.18;5.50;;;;;;;21.03;51.62;99889.63;3128522;28;20099;-67
2023/05/20 06:56:13;;;;;;;9.18;5.35;;;;;;;21.08;51.29;99878.59;3132648;28;20173;-69
2023/05/20 06:57:45;;;;;;;9.65;6.13;;;;;;;21.25;51.61;99893.03;3129447;28;20445;-68
2023/05/20 06:59:17;;;;;;;10.35;5.55;;;;;;;21.35;51.41;99888.56;3128508;28;20059;-65
2023/05/20 07:00:51;;;;;;;9.05;5.20;;;;;;;21.47;50.89;99886.66;3127209;28;20052;-69
2023/05/20 07:02:23;;;;;;;14.52;6.53;;;;;;;21.57;51.11;99884.88;3128601;28;20053;-71
2023/05/20 07:03:55;;;;;;;12.60;5.97;;;;;;;21.72;50.31;99893.28;3128105;28;20071;-67
2023/05/20 07:05:27;;;;;;;13.13;6.50;;;;;;;21.80;50.30;99886.31;3127969;28;20053;-76
2023/05/20 07:06:59;;;;;;;12.55;5.57;;;;;;;21.91;50.44;99895.09;3128239;28;20045;-74
2023/05/20 07:08:31;;;;;;;12.43;5.85;;;;;;;22.02;50.15;99894.94;3128916;28;20470;-72
2023/05/20 07:10:05;;;;;;;38.58;6.05;;;;;;;22.15;49.78;99890.16;3128310;28;20494;-70